Time;durP1;ratioP1;P1;durP2;ratioP2;P2;SDS_P1;SDS_P2;PMS_P1;PMS_P2;Temp;Humidity;BMP_temperature;BMP_pressure;BME280_temperature;BME280_humidity;BME280_pressure;Samples;Min_cycle;Max_cycle;Signal;HPM_P1;HPM_P2
2022/10/29 00:01:25;;;;;;;;;;;12.90;99.90;;;;;;5007656;28;19987;-67
2022/10/29 00:03:51;;;;;;;;;;;12.90;99.90;;;;;;4955118;28;207249;-67
2022/10/29 00:06:17;;;;;;;;;;;12.80;99.90;;;;;;5001942;28;19924;-66
2022/10/29 00:08:43;;;;;;;;;;;12.90;99.90;;;;;;4960932;28;207430;-66
2022/10/29 00:11:14;;;;;;;;;;;12.90;99.90;;;;;;5008521;28;19922;-67
2022/10/29 00:13:41;;;;;;;;;;;12.90;99.90;;;;;;4961362;28;208146;-67
2022/10/29 00:16:08;;;;;;;;;;;12.90;99.90;;;;;;5003767;28;19933;-67
2022/10/29 00:18:34;;;;;;;;;;;12.90;99.90;;;;;;4962621;28;206676;-68
2022/10/29 00:21:01;;;;;;;;;;;12.80;99.90;;;;;;5009631;28;19917;-67
2022/10/29 00:23:27;;;;;;;;;;;12.80;99.90;;;;;;4952475;28;206813;-65
2022/10/29 00:25:59;;;;;;;;;;;12.80;99.90;;;;;;5010814;28;19925;-65
2022/10/29 00:28:26;;;;;;;;;;;12.80;99.90;;;;;;4954802;28;215875;-67
2022/10/29 00:30:52;;;;;;;;;;;12.80;99.90;;;;;;5012166;28;19928;-67
2022/10/29 00:33:19;;;;;;;;;;;12.80;99.90;;;;;;4956930;28;207269;-67
2022/10/29 00:35:55;;;;;;;;;;;12.80;99.90;;;;;;5006373;28;20302;-67
2022/10/29 00:38:21;;;;;;;;;;;12.80;99.90;;;;;;4958831;28;212021;-66
2022/10/29 00:40:47;;;;;;;;;;;12.70;99.90;;;;;;5001516;28;19924;-67
2022/10/29 00:43:15;;;;;;;;;;;12.70;99.90;;;;;;4954579;28;144273;-66
2022/10/29 00:45:44;;;;;;;;;;;12.70;99.90;;;;;;5011662;28;19921;-67
2022/10/29 00:48:10;;;;;;;;;;;12.70;99.90;;;;;;4964614;28;209423;-67
2022/10/29 00:50:36;;;;;;;;;;;12.70;99.90;;;;;;5010282;28;20284;-67
2022/10/29 00:53:02;;;;;;;;;;;12.60;99.90;;;;;;4957195;28;205386;-67
2022/10/29 00:55:28;;;;;;;;;;;12.60;99.90;;;;;;5010857;28;19921;-67
2022/10/29 00:57:55;;;;;;;;;;;12.60;99.90;;;;;;4958901;28;214185;-67
2022/10/29 01:00:21;;;;;;;;;;;12.50;99.90;;;;;;5012777;28;19917;-68
2022/10/29 01:02:47;;;;;;;;;;;12.50;99.90;;;;;;4945723;28;165989;-68
2022/10/29 01:05:15;;;;;;;;;;;12.50;99.90;;;;;;5011067;28;19924;-67
2022/10/29 01:07:41;;;;;;;;;;;12.50;99.90;;;;;;4949833;28;207924;-67
2022/10/29 01:10:08;;;;;;;;;;;12.50;99.90;;;;;;4974341;28;22023;-67
2022/10/29 01:12:56;;;;;;;;;;;12.50;99.90;;;;;;4950609;28;209570;-67
2022/10/29 01:15:31;;;;;;;;;;;12.50;99.90;;;;;;5021715;28;19930;-66
2022/10/29 01:17:57;;;;;;;;;;;12.50;99.90;;;;;;4954218;28;214155;-66
2022/10/29 01:20:42;;;;;;;;;;;12.40;99.90;;;;;;5013966;28;19925;-65
2022/10/29 01:23:10;;;;;;;;;;;12.40;99.90;;;;;;4944333;28;210787;-67
2022/10/29 01:25:39;;;;;;;;;;;12.30;99.90;;;;;;5004286;28;19929;-66
2022/10/29 01:28:28;;;;;;;;;;;12.30;99.90;;;;;;4945279;28;145637;-66
2022/10/29 01:31:09;;;;;;;;;;;12.20;99.90;;;;;;4990824;28;19921;-66
2022/10/29 01:33:35;;;;;;;;;;;12.10;99.90;;;;;;4955231;28;209618;-68
2022/10/29 01:36:06;;;;;;;;;;;12.10;99.90;;;;;;5011970;28;19917;-67
2022/10/29 01:38:39;;;;;;;;;;;12.00;99.90;;;;;;4957665;28;210043;-67
2022/10/29 01:41:34;;;;;;;;;;;12.00;99.90;;;;;;5003851;28;19932;-66
2022/10/29 01:44:04;;;;;;;;;;;11.90;99.90;;;;;;4922344;28;210611;-66
2022/10/29 01:46:34;;;;;;;;;;;11.80;99.90;;;;;;4994209;28;19924;-65
2022/10/29 01:49:02;;;;;;;;;;;11.80;99.90;;;;;;4930361;28;209574;-68
2022/10/29 01:51:30;;;;;;;;;;;11.70;99.90;;;;;;4994450;28;19933;-66
2022/10/29 01:53:57;;;;;;;;;;;11.70;99.90;;;;;;4937372;28;97964;-67
2022/10/29 01:56:23;;;;;;;;;;;11.70;99.90;;;;;;4993727;28;20462;-67
2022/10/29 01:58:52;;;;;;;;;;;11.60;99.90;;;;;;4920679;28;190730;-66
2022/10/29 02:01:28;;;;;;;;;;;11.60;99.90;;;;;;4996700;28;19929;-66
2022/10/29 02:04:12;;;;;;;;;;;11.60;99.90;;;;;;4923049;28;206010;-65
2022/10/29 02:06:47;;;;;;;;;;;11.60;99.90;;;;;;4999569;28;19944;-66
2022/10/29 02:09:16;;;;;;;;;;;11.70;99.90;;;;;;4919569;28;207043;-66
2022/10/29 02:11:56;;;;;;;;;;;11.60;99.90;;;;;;5005849;28;19917;-69
2022/10/29 02:14:22;;;;;;;;;;;11.50;99.90;;;;;;4922777;28;202590;-67
2022/10/29 02:16:48;;;;;;;;;;;11.50;99.90;;;;;;5003142;28;19925;-67
2022/10/29 02:19:14;;;;;;;;;;;11.50;99.90;;;;;;4904630;28;166825;-67
2022/10/29 02:21:41;;;;;;;;;;;11.40;99.90;;;;;;5001352;28;20279;-66
2022/10/29 02:24:07;;;;;;;;;;;11.40;99.90;;;;;;4950871;28;209923;-67
2022/10/29 02:26:33;;;;;;;;;;;11.40;99.90;;;;;;5018845;28;19922;-67
2022/10/29 02:28:59;;;;;;;;;;;11.40;99.90;;;;;;4948133;28;218643;-67
2022/10/29 02:31:25;;;;;;;;;;;11.40;99.90;;;;;;5002704;28;19928;-67
2022/10/29 02:33:51;;;;;;;;;;;11.40;99.90;;;;;;4960854;28;224449;-67
2022/10/29 02:36:17;;;;;;;;;;;11.50;99.90;;;;;;5009606;28;20280;-67
2022/10/29 02:38:43;;;;;;;;;;;11.50;99.90;;;;;;4955323;28;207592;-67
2022/10/29 02:41:08;;;;;;;;;;;11.50;99.90;;;;;;4986430;28;19921;-67
2022/10/29 02:43:34;;;;;;;;;;;11.50;99.90;;;;;;4956726;28;146808;-67
2022/10/29 02:46:38;;;;;;;;;;;11.40;99.90;;;;;;5004570;28;20369;-67
2022/10/29 02:49:04;;;;;;;;;;;11.40;99.90;;;;;;4954362;28;168443;-66
2022/10/29 02:51:30;;;;;;;;;;;11.40;99.90;;;;;;5001081;28;19917;-67
2022/10/29 02:53:56;;;;;;;;;;;11.50;99.90;;;;;;4934677;28;206602;-66
2022/10/29 02:56:22;;;;;;;;;;;11.50;99.90;;;;;;4983073;28;19921;-67
2022/10/29 02:58:48;;;;;;;;;;;11.50;99.90;;;;;;4952348;28;207570;-65
2022/10/29 03:01:14;;;;;;;;;;;11.60;99.90;;;;;;5003050;28;19921;-65
2022/10/29 03:03:40;;;;;;;;;;;11.60;99.90;;;;;;4930452;28;140544;-66
2022/10/29 03:06:16;;;;;;;;;;;11.60;99.90;;;;;;4980055;28;19926;-65
2022/10/29 03:08:42;;;;;;;;;;;11.60;99.90;;;;;;4948994;28;161067;-66
2022/10/29 03:11:09;;;;;;;;;;;11.70;99.90;;;;;;5011038;28;19918;-67
2022/10/29 03:13:35;;;;;;;;;;;11.70;99.90;;;;;;4954414;28;208283;-66
2022/10/29 03:16:01;;;;;;;;;;;11.70;99.90;;;;;;5007053;28;19922;-67
2022/10/29 03:18:26;;;;;;;;;;;11.80;99.90;;;;;;4948782;28;206852;-66
2022/10/29 03:20:52;;;;;;;;;;;11.80;99.90;;;;;;4977801;28;19917;-66
2022/10/29 03:23:18;;;;;;;;;;;11.90;99.90;;;;;;4958466;28;207899;-66
2022/10/29 03:25:48;;;;;;;;;;;11.90;99.90;;;;;;4999080;28;19963;-66
2022/10/29 03:28:14;;;;;;;;;;;11.90;99.90;;;;;;4956238;28;157510;-66
2022/10/29 03:30:40;;;;;;;;;;;11.90;99.90;;;;;;5000328;28;19925;-66
2022/10/29 03:33:06;;;;;;;;;;;12.00;99.90;;;;;;4939780;28;174054;-67
2022/10/29 03:35:32;;;;;;;;;;;12.00;99.90;;;;;;5011236;28;19922;-66
2022/10/29 03:37:58;;;;;;;;;;;12.10;99.90;;;;;;4957750;28;207350;-66
2022/10/29 03:40:24;;;;;;;;;;;12.10;99.90;;;;;;5015751;28;19921;-66
2022/10/29 03:42:50;;;;;;;;;;;12.10;99.90;;;;;;4958026;28;215778;-66
2022/10/29 03:45:16;;;;;;;;;;;12.10;99.90;;;;;;5016184;28;19921;-65
2022/10/29 03:47:42;;;;;;;;;;;12.10;99.90;;;;;;4957186;28;210000;-66
2022/10/29 03:50:08;;;;;;;;;;;12.20;99.90;;;;;;5019522;28;19917;-67
2022/10/29 03:52:34;;;;;;;;;;;12.20;99.90;;;;;;4953816;28;211832;-68
2022/10/29 03:55:00;;;;;;;;;;;12.20;99.90;;;;;;5030442;28;19922;-67
2022/10/29 03:57:26;;;;;;;;;;;12.20;99.90;;;;;;4953734;28;214604;-67
2022/10/29 03:59:52;;;;;;;;;;;12.20;99.90;;;;;;5005639;28;19940;-66
2022/10/29 04:02:18;;;;;;;;;;;12.20;99.90;;;;;;4954658;28;207225;-67
2022/10/29 04:04:44;;;;;;;;;;;12.20;99.90;;;;;;5009764;28;20292;-67
2022/10/29 04:07:10;;;;;;;;;;;12.20;99.90;;;;;;4988728;28;214593;-67
2022/10/29 04:09:36;;;;;;;;;;;12.20;99.90;;;;;;4976311;28;82408;-67
2022/10/29 04:12:02;;;;;;;;;;;12.30;99.90;;;;;;5009751;28;20398;-68
2022/10/29 04:14:28;;;;;;;;;;;12.30;99.90;;;;;;4945857;28;187667;-67
2022/10/29 04:16:54;;;;;;;;;;;12.30;99.90;;;;;;5009988;28;20012;-66
2022/10/29 04:19:20;;;;;;;;;;;12.30;99.90;;;;;;4953923;28;206326;-67
2022/10/29 04:21:46;;;;;;;;;;;12.20;99.90;;;;;;5004454;28;19929;-67
2022/10/29 04:24:12;;;;;;;;;;;12.30;99.90;;;;;;4933582;28;159122;-68
2022/10/29 04:26:38;;;;;;;;;;;12.30;99.90;;;;;;5036849;28;19937;-68
2022/10/29 04:29:04;;;;;;;;;;;12.30;99.90;;;;;;4968732;28;222616;-68
2022/10/29 04:31:30;;;;;;;;;;;12.40;99.90;;;;;;5010784;28;19968;-68
2022/10/29 04:33:56;;;;;;;;;;;12.40;99.90;;;;;;4969128;28;212127;-68
2022/10/29 04:36:22;;;;;;;;;;;12.30;99.90;;;;;;5003967;28;19933;-68
2022/10/29 04:38:48;;;;;;;;;;;12.30;99.90;;;;;;4945830;28;211995;-68
2022/10/29 04:41:14;;;;;;;;;;;12.30;99.90;;;;;;5008150;28;19921;-67
2022/10/29 04:43:40;;;;;;;;;;;12.40;99.90;;;;;;4973595;28;134709;-67
2022/10/29 04:46:09;;;;;;;;;;;12.30;99.90;;;;;;5014190;28;20658;-68
2022/10/29 04:48:35;;;;;;;;;;;12.40;99.90;;;;;;4964623;28;207701;-67
2022/10/29 04:51:01;;;;;;;;;;;12.30;99.90;;;;;;5002771;28;19921;-68
2022/10/29 04:53:27;;;;;;;;;;;12.40;99.90;;;;;;4956151;28;213007;-68
2022/10/29 04:55:58;;;;;;;;;;;12.40;99.90;;;;;;5003264;28;19936;-68
2022/10/29 04:58:24;;;;;;;;;;;12.40;99.90;;;;;;4956501;28;198937;-68
2022/10/29 05:00:50;;;;;;;;;;;12.40;99.90;;;;;;4992859;28;19917;-68
2022/10/29 05:03:16;;;;;;;;;;;12.40;99.90;;;;;;4947310;28;235379;-68
2022/10/29 05:05:42;;;;;;;;;;;12.50;99.90;;;;;;5008104;28;19918;-69
2022/10/29 05:08:09;;;;;;;;;;;12.40;99.90;;;;;;4957727;28;184707;-68
2022/10/29 05:10:36;;;;;;;;;;;12.40;99.90;;;;;;4997447;28;19993;-68
2022/10/29 05:13:03;;;;;;;;;;;12.40;99.90;;;;;;4960542;28;133267;-68
2022/10/29 05:15:30;;;;;;;;;;;12.50;99.90;;;;;;5001314;28;20367;-68
2022/10/29 05:17:56;;;;;;;;;;;12.50;99.90;;;;;;4955308;28;216611;-69
2022/10/29 05:20:22;;;;;;;;;;;12.50;99.90;;;;;;5016426;28;19926;-67
2022/10/29 05:22:48;;;;;;;;;;;12.50;99.90;;;;;;4951573;28;207835;-68
2022/10/29 05:25:15;;;;;;;;;;;12.50;99.90;;;;;;5001901;28;19928;-69
2022/10/29 05:27:41;;;;;;;;;;;12.50;99.90;;;;;;4949213;28;205956;-69
2022/10/29 05:30:07;;;;;;;;;;;12.60;99.90;;;;;;5000697;28;19947;-68
2022/10/29 05:32:33;;;;;;;;;;;12.60;99.90;;;;;;4951470;28;210277;-68
2022/10/29 05:34:59;;;;;;;;;;;12.60;99.90;;;;;;5001313;28;20663;-69
2022/10/29 05:37:26;;;;;;;;;;;12.60;99.90;;;;;;4947593;28;206368;-68
2022/10/29 05:39:53;;;;;;;;;;;12.60;99.90;;;;;;4989136;28;19918;-68
2022/10/29 05:42:18;;;;;;;;;;;12.60;99.90;;;;;;4929524;28;209059;-68
2022/10/29 05:44:44;;;;;;;;;;;12.60;99.90;;;;;;5018186;28;20001;-69
2022/10/29 05:47:10;;;;;;;;;;;12.60;99.90;;;;;;4988634;28;209058;-69
2022/10/29 05:49:36;;;;;;;;;;;12.70;99.90;;;;;;4986328;28;89085;-68
2022/10/29 05:52:02;;;;;;;;;;;12.60;99.90;;;;;;5004337;28;19925;-68
2022/10/29 05:54:29;;;;;;;;;;;12.60;99.90;;;;;;4970619;28;232299;-69
2022/10/29 05:56:56;;;;;;;;;;;12.60;99.90;;;;;;5007007;28;19937;-68
2022/10/29 05:59:22;;;;;;;;;;;12.70;99.90;;;;;;4950305;28;207035;-67
2022/10/29 06:01:48;;;;;;;;;;;12.70;99.90;;;;;;5004630;28;20581;-68
2022/10/29 06:04:14;;;;;;;;;;;12.70;99.90;;;;;;4938713;28;206883;-68
2022/10/29 06:06:40;;;;;;;;;;;12.70;99.90;;;;;;5003725;28;19929;-67
2022/10/29 06:09:06;;;;;;;;;;;12.70;99.90;;;;;;4939228;28;219231;-68
2022/10/29 06:11:32;;;;;;;;;;;12.70;99.90;;;;;;5005411;28;19918;-67
2022/10/29 06:13:58;;;;;;;;;;;12.70;99.90;;;;;;4938013;28;155176;-67
2022/10/29 06:16:24;;;;;;;;;;;12.80;99.90;;;;;;5005699;28;19933;-68
2022/10/29 06:18:50;;;;;;;;;;;12.80;99.90;;;;;;4956371;28;207791;-68
2022/10/29 06:21:16;;;;;;;;;;;12.80;99.90;;;;;;5007939;28;20748;-69
2022/10/29 06:23:42;;;;;;;;;;;12.80;99.90;;;;;;4939815;28;209831;-69
2022/10/29 06:26:08;;;;;;;;;;;12.80;99.90;;;;;;4997552;28;19921;-69
2022/10/29 06:28:37;;;;;;;;;;;12.80;99.90;;;;;;4948646;28;208102;-68
2022/10/29 06:31:04;;;;;;;;;;;12.80;99.90;;;;;;4999450;28;19929;-67
2022/10/29 06:33:30;;;;;;;;;;;12.80;99.90;;;;;;4950003;28;218517;-68
2022/10/29 06:35:57;;;;;;;;;;;12.90;99.90;;;;;;5001882;28;19925;-67
2022/10/29 06:38:23;;;;;;;;;;;12.90;99.90;;;;;;4933324;28;191508;-67
2022/10/29 06:40:55;;;;;;;;;;;12.90;99.90;;;;;;4973682;28;19921;-67
2022/10/29 06:43:21;;;;;;;;;;;12.90;99.90;;;;;;4945420;28;208689;-67
2022/10/29 06:45:48;;;;;;;;;;;12.90;99.90;;;;;;5008068;28;20275;-67
2022/10/29 06:48:14;;;;;;;;;;;12.90;99.90;;;;;;4941352;28;207670;-68
2022/10/29 06:50:40;;;;;;;;;;;12.90;99.90;;;;;;4996794;28;19961;-68
2022/10/29 06:53:08;;;;;;;;;;;12.90;99.90;;;;;;4944544;28;208376;-68
2022/10/29 06:55:34;;;;;;;;;;;12.90;99.90;;;;;;4991152;28;19921;-68
2022/10/29 06:58:11;;;;;;;;;;;12.90;99.90;;;;;;4959490;28;209828;-69
2022/10/29 07:00:37;;;;;;;;;;;12.90;99.90;;;;;;5010064;28;19917;-69
2022/10/29 07:03:06;;;;;;;;;;;13.00;99.90;;;;;;4967318;28;117717;-68
2022/10/29 07:05:33;;;;;;;;;;;13.00;99.90;;;;;;5011078;28;19925;-69
2022/10/29 07:08:00;;;;;;;;;;;12.90;99.90;;;;;;4955387;28;206680;-70
2022/10/29 07:10:27;;;;;;;;;;;12.90;99.90;;;;;;4992273;28;20581;-67
2022/10/29 07:12:53;;;;;;;;;;;12.90;99.90;;;;;;4955263;28;187734;-69
2022/10/29 07:15:19;;;;;;;;;;;12.90;99.90;;;;;;5004944;28;20664;-69
2022/10/29 07:17:57;;;;;;;;;;;12.90;99.90;;;;;;4960825;28;132512;-66
2022/10/29 07:20:23;;;;;;;;;;;12.90;99.90;;;;;;5013635;28;20386;-68
2022/10/29 07:22:49;;;;;;;;;;;13.00;99.90;;;;;;4956368;28;207369;-68
2022/10/29 07:25:16;;;;;;;;;;;12.90;99.90;;;;;;4995233;28;19928;-69
2022/10/29 07:27:41;;;;;;;;;;;13.00;99.90;;;;;;4948891;28;207039;-67
2022/10/29 07:30:07;;;;;;;;;;;13.00;99.90;;;;;;5016523;28;19925;-69
2022/10/29 07:32:33;;;;;;;;;;;13.10;99.90;;;;;;4949390;28;207079;-69
2022/10/29 07:34:59;;;;;;;;;;;13.10;99.90;;;;;;5012003;28;19918;-68
2022/10/29 07:37:25;;;;;;;;;;;13.10;99.90;;;;;;4952017;28;207335;-69
2022/10/29 07:39:51;;;;;;;;;;;13.10;99.90;;;;;;5001397;28;20284;-69
2022/10/29 07:42:18;;;;;;;;;;;13.00;99.90;;;;;;4950436;28;210211;-69
2022/10/29 07:44:44;;;;;;;;;;;13.10;99.90;;;;;;4983756;28;20303;-68
2022/10/29 07:47:10;;;;;;;;;;;13.10;99.90;;;;;;4989130;28;207100;-68
2022/10/29 07:49:36;;;;;;;;;;;13.10;99.90;;;;;;4970769;28;20433;-68
2022/10/29 07:52:02;;;;;;;;;;;13.10;99.90;;;;;;5000788;28;19925;-69
2022/10/29 07:54:28;;;;;;;;;;;13.10;99.90;;;;;;4950810;28;218984;-68
2022/10/29 07:56:54;;;;;;;;;;;13.20;99.90;;;;;;5006589;28;19971;-69
2022/10/29 07:59:20;;;;;;;;;;;13.20;99.90;;;;;;4957588;28;183173;-68
2022/10/29 08:01:46;;;;;;;;;;;13.20;99.90;;;;;;5005091;28;19929;-69
2022/10/29 08:04:12;;;;;;;;;;;13.20;99.90;;;;;;4941591;28;154592;-69
2022/10/29 08:06:39;;;;;;;;;;;13.30;99.90;;;;;;5003359;28;20393;-71
2022/10/29 08:09:05;;;;;;;;;;;13.30;99.90;;;;;;4942181;28;129041;-69
2022/10/29 08:11:31;;;;;;;;;;;13.40;99.90;;;;;;5002194;28;19922;-69
2022/10/29 08:13:57;;;;;;;;;;;13.40;99.90;;;;;;4949167;28;217186;-68
2022/10/29 08:16:23;;;;;;;;;;;13.50;99.90;;;;;;5001995;28;19917;-69
2022/10/29 08:18:49;;;;;;;;;;;13.50;99.90;;;;;;4944827;28;214428;-69
2022/10/29 08:21:15;;;;;;;;;;;13.60;99.90;;;;;;4999724;28;20306;-69
2022/10/29 08:23:41;;;;;;;;;;;13.60;99.90;;;;;;4954738;28;207191;-69
2022/10/29 08:26:07;;;;;;;;;;;13.60;99.90;;;;;;5006873;28;19924;-69
2022/10/29 08:28:33;;;;;;;;;;;13.70;99.90;;;;;;4964647;28;220918;-69
2022/10/29 08:30:59;;;;;;;;;;;13.70;99.90;;;;;;4988213;28;19921;-69
2022/10/29 08:33:25;;;;;;;;;;;13.70;99.90;;;;;;4954080;28;208946;-69
2022/10/29 08:35:51;;;;;;;;;;;13.70;99.90;;;;;;5003598;28;19921;-68
2022/10/29 08:38:17;;;;;;;;;;;13.80;99.90;;;;;;4943379;28;207449;-69
2022/10/29 08:41:00;;;;;;;;;;;13.90;99.90;;;;;;4998546;28;19921;-69
2022/10/29 08:43:44;;;;;;;;;;;13.90;99.90;;;;;;4958584;28;213164;-69
2022/10/29 08:46:16;;;;;;;;;;;14.00;99.90;;;;;;5004262;28;19917;-69
2022/10/29 08:48:45;;;;;;;;;;;14.10;99.90;;;;;;4963736;28;178267;-68
2022/10/29 08:51:32;;;;;;;;;;;14.30;99.90;;;;;;5001729;28;19917;-69
2022/10/29 08:53:59;;;;;;;;;;;14.30;99.90;;;;;;4958890;28;121811;-68
2022/10/29 08:56:26;;;;;;;;;;;14.30;99.90;;;;;;5003806;28;19917;-68
2022/10/29 08:59:02;;;;;;;;;;;14.40;99.90;;;;;;4940588;28;205011;-69
2022/10/29 09:01:28;;;;;;;;;;;14.50;99.90;;;;;;5006138;28;19917;-68
2022/10/29 09:03:54;;;;;;;;;;;14.50;99.90;;;;;;4942433;28;211908;-69
2022/10/29 09:06:27;;;;;;;;;;;14.60;99.90;;;;;;5001473;28;20310;-69
2022/10/29 09:09:11;;;;;;;;;;;14.70;99.90;;;;;;4959986;28;187222;-68
2022/10/29 09:11:36;;;;;;;;;;;14.80;99.90;;;;;;5001330;28;19921;-68
2022/10/29 09:14:21;;;;;;;;;;;14.80;99.90;;;;;;4967848;28;182700;-68
2022/10/29 09:16:47;;;;;;;;;;;14.80;99.90;;;;;;5036010;28;19917;-68
2022/10/29 09:19:31;;;;;;;;;;;14.90;99.90;;;;;;4955551;28;115044;-68
2022/10/29 09:22:06;;;;;;;;;;;14.90;99.90;;;;;;5004109;28;19936;-68
2022/10/29 09:24:39;;;;;;;;;;;15.00;99.90;;;;;;4974064;28;73764;-69
2022/10/29 09:27:14;;;;;;;;;;;15.00;99.90;;;;;;4999595;28;19928;-68
2022/10/29 09:29:56;;;;;;;;;;;15.00;99.90;;;;;;4918979;28;206131;-68
2022/10/29 09:32:25;;;;;;;;;;;15.00;99.90;;;;;;4957435;28;206533;-68
2022/10/29 09:34:54;;;;;;;;;;;15.10;99.90;;;;;;4990248;28;19921;-68
2022/10/29 09:37:38;;;;;;;;;;;15.10;99.90;;;;;;4952165;28;204456;-68
2022/10/29 09:40:11;;;;;;;;;;;15.10;99.90;;;;;;5007879;28;19925;-68
2022/10/29 09:42:39;;;;;;;;;;;15.10;99.90;;;;;;4956766;28;222652;-68
2022/10/29 09:45:09;;;;;;;;;;;15.20;99.90;;;;;;5015490;28;19921;-67
2022/10/29 09:47:38;;;;;;;;;;;15.30;99.90;;;;;;4951068;28;206339;-68
2022/10/29 09:50:42;;;;;;;;;;;15.40;99.90;;;;;;4986491;28;19933;-67
2022/10/29 09:53:08;;;;;;;;;;;15.50;99.90;;;;;;4943587;28;220470;-67
2022/10/29 09:55:39;;;;;;;;;;;15.70;99.90;;;;;;4987561;28;19971;-68
2022/10/29 09:58:06;;;;;;;;;;;15.80;99.90;;;;;;4969117;28;214720;-67
2022/10/29 10:00:32;;;;;;;;;;;16.00;99.90;;;;;;4967656;28;19925;-67
2022/10/29 10:03:16;;;;;;;;;;;16.10;99.90;;;;;;4931300;28;165368;-69
2022/10/29 10:06:02;;;;;;;;;;;16.20;99.90;;;;;;4980535;28;19925;-68
2022/10/29 10:08:29;;;;;;;;;;;16.30;99.90;;;;;;4950455;28;209155;-68
2022/10/29 10:10:57;;;;;;;;;;;16.40;99.90;;;;;;4999807;28;19943;-69
2022/10/29 10:13:28;;;;;;;;;;;16.50;99.90;;;;;;4938983;28;165109;-67
2022/10/29 10:15:59;;;;;;;;;;;16.60;99.90;;;;;;5002054;28;19999;-68
2022/10/29 10:18:26;;;;;;;;;;;16.70;99.90;;;;;;4951315;28;206554;-68
2022/10/29 10:21:03;;;;;;;;;;;16.80;99.90;;;;;;4985665;28;19925;-67
2022/10/29 10:23:39;;;;;;;;;;;16.90;99.90;;;;;;4971441;28;46279;-69
2022/10/29 10:26:25;;;;;;;;;;;16.90;99.90;;;;;;4963415;28;185156;-68
2022/10/29 10:29:12;;;;;;;;;;;17.00;99.90;;;;;;4976781;28;206751;-68
2022/10/29 10:31:56;;;;;;;;;;;17.10;99.90;;;;;;5001664;28;19921;-68
2022/10/29 10:34:23;;;;;;;;;;;17.30;99.90;;;;;;4960885;28;213426;-68
2022/10/29 10:36:54;;;;;;;;;;;17.40;99.90;;;;;;5007516;28;19926;-68
2022/10/29 10:39:23;;;;;;;;;;;17.60;99.90;;;;;;4945981;28;210637;-67
2022/10/29 10:41:50;;;;;;;;;;;17.60;99.90;;;;;;4992094;28;19918;-68
2022/10/29 10:44:18;;;;;;;;;;;17.80;99.90;;;;;;4951752;28;207308;-68
2022/10/29 10:46:44;;;;;;;;;;;18.00;99.90;;;;;;4995613;28;19928;-68
2022/10/29 10:49:10;;;;;;;;;;;18.20;99.90;;;;;;4958974;28;218377;-68
2022/10/29 10:51:37;;;;;;;;;;;18.30;99.90;;;;;;5014707;28;20012;-68
2022/10/29 10:54:05;;;;;;;;;;;18.20;99.90;;;;;;4965933;28;203686;-69
2022/10/29 10:56:31;;;;;;;;;;;18.30;99.90;;;;;;5018357;28;22005;-69
2022/10/29 10:59:10;;;;;;;;;;;18.40;99.90;;;;;;4961600;28;208894;-68
2022/10/29 11:01:39;;;;;;;;;;;18.50;99.90;;;;;;5017573;28;19923;-68
2022/10/29 11:04:08;;;;;;;;;;;18.60;99.90;;;;;;4949485;28;218303;-68
2022/10/29 11:06:35;;;;;;;;;;;18.60;99.90;;;;;;4988884;28;19918;-68
2022/10/29 11:09:04;;;;;;;;;;;18.80;99.90;;;;;;4953915;28;207680;-69
2022/10/29 11:11:38;;;;;;;;;;;18.90;99.90;;;;;;4996292;28;19940;-68
2022/10/29 11:14:11;;;;;;;;;;;19.00;99.90;;;;;;4953748;28;209243;-68
2022/10/29 11:16:40;;;;;;;;;;;19.00;99.90;;;;;;5002501;28;19917;-68
2022/10/29 11:19:05;;;;;;;;;;;19.10;99.90;;;;;;4951917;28;213753;-68
2022/10/29 11:21:31;;;;;;;;;;;19.10;99.90;;;;;;5016660;28;19949;-69
2022/10/29 11:24:12;;;;;;;;;;;19.20;99.90;;;;;;4956031;28;207214;-68
2022/10/29 11:26:40;;;;;;;;;;;19.20;99.90;;;;;;5012515;28;19933;-68
2022/10/29 11:29:18;;;;;;;;;;;19.30;99.90;;;;;;4956518;28;208206;-69
2022/10/29 11:31:54;;;;;;;;;;;19.40;99.90;;;;;;5000175;28;19917;-68
2022/10/29 11:34:23;;;;;;;;;;;19.50;99.90;;;;;;4962815;28;209778;-68
2022/10/29 11:36:54;;;;;;;;;;;19.60;99.90;;;;;;5024066;28;19928;-67
2022/10/29 11:39:25;;;;;;;;;;;19.70;99.90;;;;;;4943079;28;181097;-67
2022/10/29 11:41:50;;;;;;;;;;;19.80;99.90;;;;;;4992391;28;20405;-68
2022/10/29 11:44:19;;;;;;;;;;;19.80;99.90;;;;;;4955464;28;216692;-68
2022/10/29 11:47:04;;;;;;;;;;;19.70;99.90;;;;;;4999821;28;19933;-67
2022/10/29 11:49:48;;;;;;;;;;;19.80;99.90;;;;;;4955481;28;207920;-69
2022/10/29 11:52:34;;;;;;;;;;;19.90;99.90;;;;;;5002893;28;19925;-67
2022/10/29 11:55:06;;;;;;;;;;;20.60;99.90;;;;;;4973775;28;195709;-69
2022/10/29 11:57:42;;;;;;;;;;;21.90;99.90;;;;;;5032963;28;19921;-69
2022/10/29 12:00:15;;;;;;;;;;;22.00;99.90;;;;;;4980624;28;203347;-68
2022/10/29 12:02:46;;;;;;;;;;;21.80;99.90;;;;;;5038739;28;19920;-69
2022/10/29 12:05:12;;;;;;;;;;;21.60;99.90;;;;;;4992422;28;143424;-69
2022/10/29 12:07:47;;;;;;;;;;;21.50;99.90;;;;;;5045348;28;20443;-68
2022/10/29 12:10:19;;;;;;;;;;;21.50;99.90;;;;;;5005265;28;173152;-68
2022/10/29 12:12:57;;;;;;;;;;;21.40;99.90;;;;;;5046158;28;19994;-68
2022/10/29 12:15:58;;;;;;;;;;;21.40;99.90;;;;;;4990454;28;209389;-69
2022/10/29 12:18:32;;;;;;;;;;;21.20;99.90;;;;;;5003137;28;19918;-67
2022/10/29 12:21:04;;;;;;;;;;;21.00;99.90;;;;;;4940717;28;172000;-67
2022/10/29 12:23:49;;;;;;;;;;;20.70;99.90;;;;;;4981822;28;19918;-66
2022/10/29 12:26:33;;;;;;;;;;;20.50;99.90;;;;;;4919803;28;207332;-68
2022/10/29 12:29:21;;;;;;;;;;;20.40;99.90;;;;;;4947280;28;210781;-68
2022/10/29 12:31:59;;;;;;;;;;;20.30;99.90;;;;;;5003689;28;19925;-68
2022/10/29 12:34:39;;;;;;;;;;;20.40;99.90;;;;;;4892012;29;202206;-66
2022/10/29 12:37:12;;;;;;;;;;;20.40;99.90;;;;;;4912161;29;19925;-67
2022/10/29 12:39:43;;;;;;;;;;;20.50;99.90;;;;;;4871636;28;206737;-69
2022/10/29 12:42:17;;;;;;;;;;;20.50;99.90;;;;;;4935718;29;19933;-69
2022/10/29 12:45:02;;;;;;;;;;;20.50;99.90;;;;;;4882098;28;205888;-69
2022/10/29 12:47:38;;;;;;;;;;;20.40;99.90;;;;;;4936015;29;19922;-69
2022/10/29 12:50:23;;;;;;;;;;;20.50;99.90;;;;;;4860678;29;209186;-70
2022/10/29 12:53:08;;;;;;;;;;;20.50;99.90;;;;;;4975919;28;20694;-69
2022/10/29 12:55:35;;;;;;;;;;;20.60;99.90;;;;;;4965036;28;206205;-68
2022/10/29 12:58:20;;;;;;;;;;;20.50;99.90;;;;;;5005217;28;19921;-67
2022/10/29 13:00:46;;;;;;;;;;;20.60;99.90;;;;;;4928885;28;207505;-69
2022/10/29 13:03:32;;;;;;;;;;;20.60;99.90;;;;;;5005963;28;19925;-68
2022/10/29 13:06:18;;;;;;;;;;;21.30;99.90;;;;;;4954578;28;208189;-65
2022/10/29 13:08:53;;;;;;;;;;;23.00;99.90;;;;;;4957166;28;211017;-66
2022/10/29 13:11:22;;;;;;;;;;;23.30;99.90;;;;;;4999809;28;19925;-66
2022/10/29 13:13:51;;;;;;;;;;;23.20;99.90;;;;;;4940807;28;215246;-68
2022/10/29 13:16:20;;;;;;;;;;;22.70;99.90;;;;;;4993083;28;19922;-68
2022/10/29 13:18:48;;;;;;;;;;;22.30;99.90;;;;;;4949754;28;210766;-68
2022/10/29 13:21:34;;;;;;;;;;;22.10;99.90;;;;;;5003121;28;19932;-68
2022/10/29 13:24:01;;;;;;;;;;;21.90;99.90;;;;;;4946934;28;209899;-69
2022/10/29 13:26:47;;;;;;;;;;;21.80;99.90;;;;;;5009139;28;20277;-69
2022/10/29 13:29:33;;;;;;;;;;;21.70;99.90;;;;;;4932602;28;179745;-69
2022/10/29 13:32:00;;;;;;;;;;;22.00;99.90;;;;;;4985653;28;20170;-69
2022/10/29 13:34:45;;;;;;;;;;;22.60;99.90;;;;;;4951727;28;210510;-69
2022/10/29 13:37:29;;;;;;;;;;;22.90;99.90;;;;;;5006038;28;20068;-69
2022/10/29 13:40:14;;;;;;;;;;;23.20;99.90;;;;;;4955409;28;177572;-69
2022/10/29 13:42:40;;;;;;;;;;;24.00;99.90;;;;;;5013009;28;19933;-69
2022/10/29 13:45:10;;;;;;;;;;;24.90;99.90;;;;;;4954527;28;161448;-68
2022/10/29 13:47:38;;;;;;;;;;;25.60;99.90;;;;;;5012596;28;19921;-69
2022/10/29 13:50:04;;;;;;;;;;;25.70;99.90;;;;;;4957431;28;213336;-68
2022/10/29 13:52:34;;;;;;;;;;;25.90;99.90;;;;;;4984554;28;19939;-67
2022/10/29 13:55:07;;;;;;;;;;;25.30;99.90;;;;;;4941444;28;201332;-67
2022/10/29 13:57:37;;;;;;;;;;;26.10;99.90;;;;;;4994655;28;19924;-67
2022/10/29 14:00:14;;;;;;;;;;;26.70;99.90;;;;;;4945334;28;206613;-67
2022/10/29 14:02:57;;;;;;;;;;;27.10;99.90;;;;;;4998991;28;19926;-68
2022/10/29 14:05:36;;;;;;;;;;;27.70;99.90;;;;;;4937648;28;214304;-67
2022/10/29 14:08:21;;;;;;;;;;;28.30;99.90;;;;;;4994893;28;19933;-67
2022/10/29 14:10:49;;;;;;;;;;;27.40;99.10;;;;;;4957039;28;207406;-67
2022/10/29 14:13:38;;;;;;;;;;;27.70;99.90;;;;;;5000905;28;19921;-66
2022/10/29 14:16:04;;;;;;;;;;;27.60;99.90;;;;;;4923690;28;215543;-69
2022/10/29 14:18:30;;;;;;;;;;;27.20;99.90;;;;;;4997597;28;20418;-69
2022/10/29 14:20:57;;;;;;;;;;;26.50;99.40;;;;;;4946686;28;206573;-67
2022/10/29 14:23:23;;;;;;;;;;;25.90;99.90;;;;;;4999336;28;19917;-68
2022/10/29 14:25:50;;;;;;;;;;;25.40;99.90;;;;;;4947652;28;212281;-68
2022/10/29 14:28:16;;;;;;;;;;;25.00;99.90;;;;;;5000040;28;19918;-68